Time;durP1;ratioP1;P1;durP2;ratioP2;P2;SDS_P1;SDS_P2;PMS_P1;PMS_P2;Temp;Humidity;BMP_temperature;BMP_pressure;BME280_temperature;BME280_humidity;BME280_pressure;Samples;Min_cycle;Max_cycle;Signal;HPM_P1;HPM_P2
2021/12/26 00:01:19;;;;;;;;;;;5.40;61.90;;;;;;5116359;28;20395;-68
2021/12/26 00:03:45;;;;;;;;;;;5.40;61.80;;;;;;5116441;28;19912;-69
2021/12/26 00:06:12;;;;;;;;;;;5.50;61.80;;;;;;5116628;27;20060;-68
2021/12/26 00:08:39;;;;;;;;;;;5.50;61.70;;;;;;5115023;28;19908;-68
2021/12/26 00:11:05;;;;;;;;;;;5.40;61.70;;;;;;5116151;27;19912;-68
2021/12/26 00:13:31;;;;;;;;;;;5.40;61.60;;;;;;5116096;28;19941;-68
2021/12/26 00:15:57;;;;;;;;;;;5.40;61.60;;;;;;5115944;28;19916;-68
2021/12/26 00:18:22;;;;;;;;;;;5.40;61.50;;;;;;5115913;27;19912;-68
2021/12/26 00:20:48;;;;;;;;;;;5.40;61.50;;;;;;5116492;28;19911;-68
2021/12/26 00:23:14;;;;;;;;;;;5.40;61.50;;;;;;5110070;28;19993;-68
2021/12/26 00:25:40;;;;;;;;;;;5.40;61.60;;;;;;5096549;28;20361;-68
2021/12/26 00:28:06;;;;;;;;;;;5.40;61.50;;;;;;5095232;28;19908;-68
2021/12/26 00:30:31;;;;;;;;;;;5.40;61.50;;;;;;5114322;28;19994;-68
2021/12/26 00:32:57;;;;;;;;;;;5.40;61.50;;;;;;5116725;28;19958;-68
2021/12/26 00:35:23;;;;;;;;;;;5.40;61.50;;;;;;5116742;28;20258;-68
2021/12/26 00:37:49;;;;;;;;;;;5.40;61.50;;;;;;5116721;28;19904;-68
2021/12/26 00:40:16;;;;;;;;;;;5.40;61.50;;;;;;5100554;28;19912;-68
2021/12/26 00:42:41;;;;;;;;;;;5.40;61.50;;;;;;5106973;28;20383;-68
2021/12/26 00:45:08;;;;;;;;;;;5.40;61.30;;;;;;5116336;28;19908;-68
2021/12/26 00:47:34;;;;;;;;;;;5.40;61.30;;;;;;5116468;28;19907;-68
2021/12/26 00:50:00;;;;;;;;;;;5.40;61.20;;;;;;5102626;28;20384;-68
2021/12/26 00:52:26;;;;;;;;;;;5.30;61.20;;;;;;5095984;28;19923;-68
2021/12/26 00:54:51;;;;;;;;;;;5.30;61.10;;;;;;5094978;28;19910;-68
2021/12/26 00:57:17;;;;;;;;;;;5.30;61.00;;;;;;5095927;28;20281;-69
2021/12/26 00:59:43;;;;;;;;;;;5.30;60.90;;;;;;5106475;28;19912;-68
2021/12/26 01:02:08;;;;;;;;;;;5.30;61.00;;;;;;5116219;28;19959;-68
2021/12/26 01:04:34;;;;;;;;;;;5.20;60.90;;;;;;5116225;28;19908;-67
2021/12/26 01:07:06;;;;;;;;;;;5.20;60.80;;;;;;5116239;28;19907;-66
2021/12/26 01:09:32;;;;;;;;;;;5.20;60.90;;;;;;5106997;28;19912;-66
2021/12/26 01:12:00;;;;;;;;;;;5.20;61.00;;;;;;5095095;28;20434;-66
2021/12/26 01:14:30;;;;;;;;;;;5.20;61.00;;;;;;5096287;28;19943;-66
2021/12/26 01:17:04;;;;;;;;;;;5.20;61.10;;;;;;5095565;28;19916;-65
2021/12/26 01:19:40;;;;;;;;;;;5.10;61.00;;;;;;5104082;28;19919;-65
2021/12/26 01:22:06;;;;;;;;;;;5.10;61.00;;;;;;5115887;28;19903;-65
2021/12/26 01:24:31;;;;;;;;;;;5.10;61.00;;;;;;5115838;28;19908;-65
2021/12/26 01:26:57;;;;;;;;;;;5.10;61.00;;;;;;5115806;28;19911;-64
2021/12/26 01:29:23;;;;;;;;;;;5.10;61.00;;;;;;5108324;28;19920;-64
2021/12/26 01:31:48;;;;;;;;;;;5.10;60.80;;;;;;5095168;28;19923;-64
2021/12/26 01:34:14;;;;;;;;;;;5.10;60.80;;;;;;5095228;28;20289;-64
2021/12/26 01:36:40;;;;;;;;;;;5.10;60.70;;;;;;5093940;28;19908;-64
2021/12/26 01:39:08;;;;;;;;;;;5.10;60.60;;;;;;5102040;28;20432;-66
2021/12/26 01:41:39;;;;;;;;;;;5.10;60.70;;;;;;5115187;27;20474;-64
2021/12/26 01:44:05;;;;;;;;;;;5.10;60.70;;;;;;5115097;28;19912;-64
2021/12/26 01:46:31;;;;;;;;;;;5.10;60.80;;;;;;5115361;28;19961;-64
2021/12/26 01:49:07;;;;;;;;;;;5.20;61.00;;;;;;5115025;28;19911;-65
2021/12/26 01:51:33;;;;;;;;;;;5.10;60.90;;;;;;5115116;27;20262;-63
2021/12/26 01:54:04;;;;;;;;;;;5.20;60.70;;;;;;5115189;28;19957;-64
2021/12/26 01:56:30;;;;;;;;;;;5.20;60.60;;;;;;5113955;28;20288;-63
2021/12/26 01:58:57;;;;;;;;;;;5.20;60.40;;;;;;5109796;28;19912;-63
2021/12/26 02:01:22;;;;;;;;;;;5.20;60.40;;;;;;5094651;28;19953;-63
2021/12/26 02:03:48;;;;;;;;;;;5.20;60.30;;;;;;5094530;28;19908;-63
2021/12/26 02:06:14;;;;;;;;;;;5.20;60.20;;;;;;5094421;28;20568;-63
2021/12/26 02:08:39;;;;;;;;;;;5.20;60.20;;;;;;5096573;28;19927;-63
2021/12/26 02:11:05;;;;;;;;;;;5.20;60.20;;;;;;5114780;28;19915;-63
2021/12/26 02:13:33;;;;;;;;;;;5.20;60.10;;;;;;5114349;28;19922;-63
2021/12/26 02:15:59;;;;;;;;;;;5.20;60.00;;;;;;5114533;28;19925;-63
2021/12/26 02:18:25;;;;;;;;;;;5.20;60.00;;;;;;5112989;28;20284;-63
2021/12/26 02:23:36;;;;;;;;;;;5.10;59.70;;;;;;5114276;28;19912;-63
2021/12/26 02:28:37;;;;;;;;;;;5.10;59.60;;;;;;5111381;28;20299;-64
2021/12/26 02:31:03;;;;;;;;;;;5.10;59.40;;;;;;5092736;28;19951;-64
2021/12/26 02:33:29;;;;;;;;;;;5.10;59.30;;;;;;5093982;28;20005;-63
2021/12/26 02:35:54;;;;;;;;;;;5.10;59.30;;;;;;5093960;28;19944;-64
2021/12/26 02:38:20;;;;;;;;;;;5.00;59.20;;;;;;5093981;28;20421;-63
2021/12/26 02:40:47;;;;;;;;;;;5.00;59.20;;;;;;5114505;28;20257;-63
2021/12/26 02:43:15;;;;;;;;;;;5.00;59.00;;;;;;5112354;28;20377;-64
2021/12/26 02:45:41;;;;;;;;;;;5.00;58.90;;;;;;5114117;28;19908;-63
2021/12/26 02:48:08;;;;;;;;;;;5.00;58.80;;;;;;5112758;28;19908;-63
2021/12/26 02:50:33;;;;;;;;;;;5.00;58.50;;;;;;5113641;28;19957;-64
2021/12/26 02:53:00;;;;;;;;;;;4.90;58.50;;;;;;5106679;28;20328;-64
2021/12/26 02:55:26;;;;;;;;;;;5.00;58.60;;;;;;5093617;28;19938;-63
2021/12/26 02:57:53;;;;;;;;;;;4.90;59.00;;;;;;5093631;28;19904;-62
2021/12/26 03:00:20;;;;;;;;;;;4.90;58.30;;;;;;5093520;28;20004;-62
2021/12/26 03:02:48;;;;;;;;;;;4.90;58.30;;;;;;5098226;28;19908;-63
2021/12/26 03:05:15;;;;;;;;;;;4.90;58.20;;;;;;5113839;28;19939;-63
2021/12/26 03:07:40;;;;;;;;;;;4.90;58.20;;;;;;5113810;28;19904;-63
2021/12/26 03:10:10;;;;;;;;;;;4.90;58.10;;;;;;5113761;28;19908;-63
2021/12/26 03:12:39;;;;;;;;;;;4.90;58.00;;;;;;5110182;28;19912;-63
2021/12/26 03:15:05;;;;;;;;;;;4.90;57.90;;;;;;5093177;28;19912;-63
2021/12/26 03:17:31;;;;;;;;;;;4.90;58.00;;;;;;5092756;28;19935;-63
2021/12/26 03:19:56;;;;;;;;;;;4.90;58.00;;;;;;5093225;28;19915;-64
2021/12/26 03:22:25;;;;;;;;;;;4.90;58.00;;;;;;5094051;28;20055;-62
2021/12/26 03:24:50;;;;;;;;;;;4.90;58.00;;;;;;5113599;28;19909;-63
2021/12/26 03:27:16;;;;;;;;;;;5.00;58.10;;;;;;5113508;28;20331;-63
2021/12/26 03:29:41;;;;;;;;;;;5.00;57.90;;;;;;5113378;28;19961;-63
2021/12/26 03:32:08;;;;;;;;;;;5.00;57.70;;;;;;5113452;28;19920;-63
2021/12/26 03:34:33;;;;;;;;;;;5.00;57.70;;;;;;5093972;28;20442;-63
2021/12/26 03:36:59;;;;;;;;;;;5.00;57.70;;;;;;5093165;28;19908;-63
2021/12/26 03:39:25;;;;;;;;;;;5.00;57.70;;;;;;5093149;28;19908;-64
2021/12/26 03:41:51;;;;;;;;;;;5.00;57.60;;;;;;5113433;28;19908;-64
2021/12/26 03:44:16;;;;;;;;;;;5.00;57.50;;;;;;5096651;28;20373;-63
2021/12/26 03:46:43;;;;;;;;;;;5.10;57.60;;;;;;5093282;28;19904;-64
2021/12/26 03:49:08;;;;;;;;;;;5.10;57.60;;;;;;5092968;28;19930;-63
2021/12/26 03:51:34;;;;;;;;;;;5.10;57.30;;;;;;5092787;28;19912;-63
2021/12/26 03:54:00;;;;;;;;;;;5.10;57.20;;;;;;5106810;28;20007;-64
2021/12/26 03:56:27;;;;;;;;;;;5.10;57.30;;;;;;5113335;28;19908;-64
2021/12/26 03:58:52;;;;;;;;;;;5.10;57.30;;;;;;5113261;28;19943;-64
2021/12/26 04:01:18;;;;;;;;;;;5.10;57.20;;;;;;5107534;28;19997;-63
2021/12/26 04:03:44;;;;;;;;;;;5.10;57.10;;;;;;5104009;28;19912;-64
2021/12/26 04:06:09;;;;;;;;;;;5.10;57.00;;;;;;5112995;28;19912;-63
2021/12/26 04:08:35;;;;;;;;;;;5.10;56.90;;;;;;5113129;28;19908;-64
2021/12/26 04:11:00;;;;;;;;;;;5.10;56.80;;;;;;5112595;28;20038;-64
2021/12/26 04:13:26;;;;;;;;;;;5.10;56.60;;;;;;5103483;28;20010;-64
2021/12/26 04:15:52;;;;;;;;;;;5.10;56.40;;;;;;5092206;28;19912;-64
2021/12/26 04:18:17;;;;;;;;;;;5.10;56.30;;;;;;5092337;28;19938;-64
2021/12/26 04:20:43;;;;;;;;;;;5.10;56.30;;;;;;5092314;28;20319;-64
2021/12/26 04:23:09;;;;;;;;;;;5.10;56.00;;;;;;5098404;28;19919;-63
2021/12/26 04:25:34;;;;;;;;;;;5.10;55.70;;;;;;5112645;28;19907;-64
2021/12/26 04:28:00;;;;;;;;;;;5.10;55.60;;;;;;5112600;28;20392;-64
2021/12/26 04:30:26;;;;;;;;;;;5.00;55.40;;;;;;5114869;28;19964;-64
2021/12/26 04:32:52;;;;;;;;;;;5.00;55.40;;;;;;5112423;28;19924;-64
2021/12/26 04:35:19;;;;;;;;;;;5.00;55.00;;;;;;5095879;28;20280;-64
2021/12/26 04:37:44;;;;;;;;;;;5.00;55.10;;;;;;5095864;28;19915;-64
2021/12/26 04:40:13;;;;;;;;;;;4.90;55.10;;;;;;5113974;28;19908;-64
2021/12/26 04:42:40;;;;;;;;;;;4.90;55.20;;;;;;5111044;28;20293;-64
2021/12/26 04:45:08;;;;;;;;;;;4.90;55.20;;;;;;5095733;28;19915;-64
2021/12/26 04:47:34;;;;;;;;;;;5.00;55.40;;;;;;5095632;28;19915;-64
2021/12/26 04:50:00;;;;;;;;;;;4.90;55.20;;;;;;5095498;28;20330;-64
2021/12/26 04:52:25;;;;;;;;;;;4.90;55.00;;;;;;5096515;28;20017;-63
2021/12/26 04:54:52;;;;;;;;;;;4.90;54.60;;;;;;5115958;28;19996;-64
2021/12/26 04:57:18;;;;;;;;;;;4.90;54.40;;;;;;5114624;28;19908;-65
2021/12/26 04:59:44;;;;;;;;;;;4.90;54.40;;;;;;5115821;28;19931;-64
2021/12/26 05:02:10;;;;;;;;;;;4.90;54.30;;;;;;5115332;28;19912;-63
2021/12/26 05:04:36;;;;;;;;;;;4.90;54.20;;;;;;5095533;28;20284;-64
2021/12/26 05:07:01;;;;;;;;;;;4.80;54.00;;;;;;5095404;28;19908;-64
2021/12/26 05:09:27;;;;;;;;;;;4.80;53.90;;;;;;5095407;28;19908;-63
2021/12/26 05:11:53;;;;;;;;;;;4.80;53.80;;;;;;5093849;28;19920;-64
2021/12/26 05:14:19;;;;;;;;;;;4.80;53.80;;;;;;5113279;28;19915;-64
2021/12/26 05:16:44;;;;;;;;;;;4.80;53.90;;;;;;5115244;28;19916;-63
2021/12/26 05:19:10;;;;;;;;;;;4.80;53.70;;;;;;5115494;28;19957;-64
2021/12/26 05:21:35;;;;;;;;;;;4.80;53.70;;;;;;5115450;28;20338;-64
2021/12/26 05:24:01;;;;;;;;;;;4.80;53.60;;;;;;5099518;28;20015;-64
2021/12/26 05:26:27;;;;;;;;;;;4.80;53.60;;;;;;5093647;28;19915;-63
2021/12/26 05:28:52;;;;;;;;;;;4.70;53.40;;;;;;5094984;28;19908;-63
2021/12/26 05:31:18;;;;;;;;;;;4.80;53.40;;;;;;5094775;28;19908;-64
2021/12/26 05:33:43;;;;;;;;;;;4.80;53.30;;;;;;5107428;28;20006;-64
2021/12/26 05:36:09;;;;;;;;;;;4.80;53.40;;;;;;5115161;28;19998;-64
2021/12/26 05:38:35;;;;;;;;;;;4.80;53.60;;;;;;5115018;27;19909;-65
2021/12/26 05:41:00;;;;;;;;;;;4.80;53.70;;;;;;5114617;28;19907;-64
2021/12/26 05:43:26;;;;;;;;;;;4.80;53.60;;;;;;5101113;28;19970;-64
2021/12/26 05:45:51;;;;;;;;;;;4.80;53.40;;;;;;5094683;28;19908;-64
2021/12/26 05:48:17;;;;;;;;;;;4.80;53.20;;;;;;5094619;28;19973;-64
2021/12/26 05:50:43;;;;;;;;;;;4.80;53.20;;;;;;5094301;28;20358;-64
2021/12/26 05:53:08;;;;;;;;;;;4.80;53.10;;;;;;5105019;28;20391;-63
2021/12/26 05:55:34;;;;;;;;;;;4.80;53.10;;;;;;5114851;28;20369;-64
2021/12/26 05:57:59;;;;;;;;;;;4.80;53.00;;;;;;5113432;28;19908;-64
2021/12/26 06:00:25;;;;;;;;;;;4.80;52.90;;;;;;5114782;28;20361;-64
2021/12/26 06:02:52;;;;;;;;;;;4.80;53.10;;;;;;5106378;28;19912;-64
2021/12/26 06:05:18;;;;;;;;;;;4.80;53.10;;;;;;5094311;28;19915;-64
2021/12/26 06:07:44;;;;;;;;;;;4.80;53.20;;;;;;5094181;28;19912;-64
2021/12/26 06:10:10;;;;;;;;;;;4.90;53.30;;;;;;5094173;28;19953;-64
2021/12/26 06:12:36;;;;;;;;;;;4.90;53.30;;;;;;5099458;28;19916;-64
2021/12/26 06:15:02;;;;;;;;;;;4.90;53.30;;;;;;5114128;28;19912;-64
2021/12/26 06:17:28;;;;;;;;;;;5.00;53.40;;;;;;5114413;27;20407;-64
2021/12/26 06:19:54;;;;;;;;;;;5.00;53.30;;;;;;5114439;28;19908;-64
2021/12/26 06:22:19;;;;;;;;;;;5.00;53.30;;;;;;5112549;28;20007;-64
2021/12/26 06:24:45;;;;;;;;;;;5.00;53.30;;;;;;5113672;28;19947;-64
2021/12/26 06:27:10;;;;;;;;;;;5.10;53.30;;;;;;5113929;28;20319;-64
2021/12/26 06:29:36;;;;;;;;;;;5.10;53.20;;;;;;5112845;28;19915;-64
2021/12/26 06:32:03;;;;;;;;;;;5.10;53.10;;;;;;5113286;28;20345;-64
2021/12/26 06:34:28;;;;;;;;;;;5.10;53.00;;;;;;5096076;28;19997;-64
2021/12/26 06:36:54;;;;;;;;;;;5.10;53.00;;;;;;5107949;28;19969;-64
2021/12/26 06:39:19;;;;;;;;;;;5.10;53.00;;;;;;5114038;28;19908;-64
2021/12/26 06:41:45;;;;;;;;;;;5.10;52.90;;;;;;5114000;28;19983;-64
2021/12/26 06:44:11;;;;;;;;;;;5.10;52.90;;;;;;5093915;28;19992;-64
2021/12/26 06:46:37;;;;;;;;;;;5.10;52.80;;;;;;5093528;28;20313;-64
2021/12/26 06:49:03;;;;;;;;;;;5.10;52.70;;;;;;5093544;28;19904;-64
2021/12/26 06:51:29;;;;;;;;;;;5.10;52.50;;;;;;5092957;28;19908;-64
2021/12/26 06:53:55;;;;;;;;;;;5.10;52.40;;;;;;5108429;28;19930;-63
2021/12/26 06:56:20;;;;;;;;;;;5.10;52.20;;;;;;5113660;28;19930;-64
2021/12/26 06:58:46;;;;;;;;;;;5.10;52.00;;;;;;5113681;28;19908;-64
2021/12/26 07:01:11;;;;;;;;;;;5.10;51.90;;;;;;5113641;28;20352;-64
2021/12/26 07:03:37;;;;;;;;;;;5.00;51.70;;;;;;5096763;28;19912;-64
2021/12/26 07:06:03;;;;;;;;;;;5.10;51.70;;;;;;5093182;28;20002;-64
2021/12/26 07:08:29;;;;;;;;;;;5.00;51.80;;;;;;5093184;28;20011;-64
2021/12/26 07:10:55;;;;;;;;;;;5.00;51.90;;;;;;5093033;28;20350;-64
2021/12/26 07:13:20;;;;;;;;;;;5.00;51.70;;;;;;5106614;28;20002;-64
2021/12/26 07:15:46;;;;;;;;;;;5.00;51.60;;;;;;5113169;28;19912;-64
2021/12/26 07:18:11;;;;;;;;;;;5.00;51.50;;;;;;5113338;28;19911;-64
2021/12/26 07:20:37;;;;;;;;;;;5.00;51.60;;;;;;5113290;28;19977;-63
2021/12/26 07:23:03;;;;;;;;;;;5.00;51.70;;;;;;5101739;28;19957;-64
2021/12/26 07:25:29;;;;;;;;;;;5.00;51.60;;;;;;5092947;28;20286;-64
2021/12/26 07:27:55;;;;;;;;;;;5.00;51.50;;;;;;5092933;28;20373;-64
2021/12/26 07:30:20;;;;;;;;;;;5.00;51.50;;;;;;5092915;28;19908;-64
2021/12/26 07:32:46;;;;;;;;;;;5.00;51.50;;;;;;5101086;28;20311;-64
2021/12/26 07:35:12;;;;;;;;;;;5.00;51.60;;;;;;5113074;28;20262;-65
2021/12/26 07:37:38;;;;;;;;;;;5.00;51.40;;;;;;5113161;28;19999;-64
2021/12/26 07:40:04;;;;;;;;;;;5.10;51.40;;;;;;5113047;28;19911;-65
2021/12/26 07:42:30;;;;;;;;;;;5.10;51.30;;;;;;5106770;28;19908;-64
2021/12/26 07:44:56;;;;;;;;;;;5.10;51.30;;;;;;5092681;28;20380;-63
2021/12/26 07:47:22;;;;;;;;;;;5.20;51.50;;;;;;5092623;28;19912;-64
2021/12/26 07:49:47;;;;;;;;;;;5.20;51.40;;;;;;5092559;28;20445;-63
2021/12/26 07:52:17;;;;;;;;;;;5.30;51.40;;;;;;5095726;28;19923;-64
2021/12/26 07:54:44;;;;;;;;;;;5.30;51.20;;;;;;5113055;28;20437;-64
2021/12/26 07:57:10;;;;;;;;;;;5.30;51.20;;;;;;5113008;28;20325;-64
2021/12/26 07:59:36;;;;;;;;;;;5.30;51.20;;;;;;5112563;28;20007;-64
2021/12/26 08:02:01;;;;;;;;;;;5.40;51.30;;;;;;5105344;28;20373;-64
2021/12/26 08:04:27;;;;;;;;;;;5.40;51.90;;;;;;5095185;28;19908;-63
2021/12/26 08:06:53;;;;;;;;;;;5.40;51.20;;;;;;5096526;28;19915;-64
2021/12/26 08:09:19;;;;;;;;;;;5.50;50.90;;;;;;5096448;28;19947;-64
2021/12/26 08:11:45;;;;;;;;;;;5.40;50.10;;;;;;5099408;28;19912;-64
2021/12/26 08:14:10;;;;;;;;;;;5.40;49.80;;;;;;5116774;28;19919;-63
2021/12/26 08:16:36;;;;;;;;;;;5.40;49.90;;;;;;5116566;28;19919;-64
2021/12/26 08:19:02;;;;;;;;;;;5.40;49.80;;;;;;5116695;28;19908;-64
2021/12/26 08:21:28;;;;;;;;;;;5.40;50.30;;;;;;5115849;28;19908;-64
2021/12/26 08:23:54;;;;;;;;;;;5.40;49.70;;;;;;5096398;28;19960;-64
2021/12/26 08:26:19;;;;;;;;;;;5.40;49.70;;;;;;5096132;28;19908;-64
2021/12/26 08:28:45;;;;;;;;;;;5.40;49.70;;;;;;5097169;28;19915;-64
2021/12/26 08:31:11;;;;;;;;;;;5.40;49.80;;;;;;5095975;28;19965;-64
2021/12/26 08:33:36;;;;;;;;;;;5.40;49.70;;;;;;5106180;28;20377;-64
2021/12/26 08:36:03;;;;;;;;;;;5.40;49.50;;;;;;5116365;28;20006;-64
2021/12/26 08:38:28;;;;;;;;;;;5.40;49.60;;;;;;5107635;28;19920;-64
2021/12/26 08:40:55;;;;;;;;;;;5.40;49.50;;;;;;5095858;28;19913;-64
2021/12/26 08:43:21;;;;;;;;;;;5.50;49.70;;;;;;5095727;28;19908;-64
2021/12/26 08:45:47;;;;;;;;;;;5.50;49.80;;;;;;5095782;28;20312;-64
2021/12/26 08:48:15;;;;;;;;;;;5.60;49.90;;;;;;5101108;28;19919;-63
2021/12/26 08:50:42;;;;;;;;;;;5.60;49.80;;;;;;5116051;28;19915;-63
2021/12/26 08:53:08;;;;;;;;;;;5.70;49.60;;;;;;5115849;28;19911;-64
2021/12/26 08:55:36;;;;;;;;;;;5.70;49.70;;;;;;5115993;28;20007;-63
2021/12/26 08:58:01;;;;;;;;;;;5.80;49.80;;;;;;5111423;28;19935;-63
2021/12/26 09:00:29;;;;;;;;;;;5.80;49.60;;;;;;5095438;28;19908;-63
2021/12/26 09:02:55;;;;;;;;;;;5.90;49.60;;;;;;5095436;28;19908;-64
2021/12/26 09:05:21;;;;;;;;;;;5.90;49.60;;;;;;5095391;28;19915;-63
2021/12/26 09:07:46;;;;;;;;;;;5.90;49.50;;;;;;5096656;28;19908;-63
2021/12/26 09:10:13;;;;;;;;;;;6.00;49.50;;;;;;5114226;28;19977;-63
2021/12/26 09:12:39;;;;;;;;;;;6.00;49.50;;;;;;5115396;28;19956;-64
2021/12/26 09:15:05;;;;;;;;;;;6.10;49.30;;;;;;5114426;28;20013;-64
2021/12/26 09:17:31;;;;;;;;;;;6.10;49.30;;;;;;5115330;28;19911;-64
2021/12/26 09:19:57;;;;;;;;;;;6.10;49.30;;;;;;5095266;28;20004;-63
2021/12/26 09:22:22;;;;;;;;;;;6.10;49.30;;;;;;5094917;28;19991;-64
2021/12/26 09:24:48;;;;;;;;;;;6.20;49.20;;;;;;5094996;28;19999;-65
2021/12/26 09:27:14;;;;;;;;;;;6.20;49.10;;;;;;5094849;28;19959;-64
2021/12/26 09:29:40;;;;;;;;;;;6.20;49.10;;;;;;5111614;28;19912;-64
2021/12/26 09:32:08;;;;;;;;;;;6.30;48.90;;;;;;5113602;28;19915;-65
2021/12/26 09:34:34;;;;;;;;;;;6.30;48.60;;;;;;5115134;28;19947;-64
2021/12/26 09:37:04;;;;;;;;;;;6.30;48.70;;;;;;5115024;28;19947;-64
2021/12/26 09:39:29;;;;;;;;;;;6.30;48.90;;;;;;5102509;28;19912;-64
2021/12/26 09:41:55;;;;;;;;;;;6.40;48.90;;;;;;5106640;28;19911;-64
2021/12/26 09:44:22;;;;;;;;;;;6.40;48.90;;;;;;5114901;28;19939;-63
2021/12/26 09:46:47;;;;;;;;;;;6.50;49.00;;;;;;5113182;28;20310;-64
2021/12/26 09:49:13;;;;;;;;;;;6.60;49.20;;;;;;5114703;28;19931;-64
2021/12/26 09:51:39;;;;;;;;;;;6.60;49.00;;;;;;5114501;28;19910;-64
2021/12/26 09:54:05;;;;;;;;;;;6.70;49.50;;;;;;5114740;28;20002;-64
2021/12/26 09:56:31;;;;;;;;;;;6.80;48.80;;;;;;5114711;28;19958;-64
2021/12/26 09:59:01;;;;;;;;;;;6.90;48.90;;;;;;5114589;28;20330;-64
2021/12/26 10:01:34;;;;;;;;;;;7.00;48.70;;;;;;5114703;28;20011;-64
2021/12/26 10:04:15;;;;;;;;;;;7.10;48.70;;;;;;5114480;28;20010;-65
2021/12/26 10:06:40;;;;;;;;;;;7.20;48.80;;;;;;5114492;28;19908;-64
2021/12/26 10:09:10;;;;;;;;;;;7.30;48.60;;;;;;5114554;28;19957;-65
2021/12/26 10:11:43;;;;;;;;;;;7.40;48.50;;;;;;5114268;28;19915;-63
2021/12/26 10:14:14;;;;;;;;;;;7.50;48.30;;;;;;5114306;27;19908;-63
2021/12/26 10:16:44;;;;;;;;;;;7.50;48.10;;;;;;5113999;28;19990;-64
2021/12/26 10:19:10;;;;;;;;;;;7.50;48.10;;;;;;5114199;28;19919;-64
2021/12/26 10:21:39;;;;;;;;;;;7.60;48.10;;;;;;5114231;28;19908;-63
2021/12/26 10:24:06;;;;;;;;;;;7.60;48.10;;;;;;5114168;28;19907;-64
2021/12/26 10:26:36;;;;;;;;;;;7.70;48.10;;;;;;5114086;28;20254;-64
2021/12/26 10:29:06;;;;;;;;;;;7.70;48.00;;;;;;5112823;28;20291;-64
2021/12/26 10:31:31;;;;;;;;;;;7.70;47.80;;;;;;5097139;28;19908;-63
2021/12/26 10:33:57;;;;;;;;;;;7.70;47.70;;;;;;5099384;28;20043;-63
2021/12/26 10:36:23;;;;;;;;;;;7.60;47.60;;;;;;5112452;28;19907;-64
2021/12/26 10:39:07;;;;;;;;;;;7.60;47.60;;;;;;5113731;28;19923;-64
2021/12/26 10:41:32;;;;;;;;;;;7.50;47.50;;;;;;5112358;28;20268;-64
2021/12/26 10:43:58;;;;;;;;;;;7.50;47.50;;;;;;5113747;28;19908;-64
2021/12/26 10:46:24;;;;;;;;;;;7.50;47.50;;;;;;5113691;28;20384;-64
2021/12/26 10:48:49;;;;;;;;;;;7.50;47.60;;;;;;5113606;28;19908;-64
2021/12/26 10:51:34;;;;;;;;;;;7.40;47.70;;;;;;5113464;28;19936;-64
2021/12/26 10:54:16;;;;;;;;;;;7.40;47.70;;;;;;5113247;28;19915;-64
2021/12/26 10:56:41;;;;;;;;;;;7.50;47.80;;;;;;5113602;28;19937;-64
2021/12/26 10:59:17;;;;;;;;;;;7.50;47.90;;;;;;5113426;28;19916;-65
2021/12/26 11:01:43;;;;;;;;;;;7.50;47.80;;;;;;5113584;28;19920;-65
2021/12/26 11:04:11;;;;;;;;;;;7.50;47.70;;;;;;5112032;28;19916;-65
2021/12/26 11:06:55;;;;;;;;;;;7.50;47.40;;;;;;5113714;28;19947;-65
2021/12/26 11:09:21;;;;;;;;;;;7.50;47.30;;;;;;5113494;28;20293;-64
2021/12/26 11:12:06;;;;;;;;;;;7.60;47.50;;;;;;5113477;28;19908;-65
2021/12/26 11:14:32;;;;;;;;;;;7.60;47.60;;;;;;5113613;28;19908;-65
2021/12/26 11:16:58;;;;;;;;;;;7.60;47.40;;;;;;5113328;28;20323;-65
2021/12/26 11:19:43;;;;;;;;;;;7.60;47.20;;;;;;5113403;28;19907;-65
2021/12/26 11:22:09;;;;;;;;;;;7.60;47.20;;;;;;5120552;27;19908;-65
2021/12/26 11:24:35;;;;;;;;;;;7.60;47.00;;;;;;5108612;27;19919;-65
2021/12/26 11:27:02;;;;;;;;;;;7.60;46.90;;;;;;5113051;28;19912;-64
2021/12/26 11:29:28;;;;;;;;;;;7.60;46.90;;;;;;5108771;28;19920;-65
2021/12/26 11:31:54;;;;;;;;;;;7.60;47.00;;;;;;5096455;28;20233;-66
2021/12/26 11:34:20;;;;;;;;;;;7.60;47.20;;;;;;5101674;28;20010;-65
2021/12/26 11:36:48;;;;;;;;;;;7.60;47.20;;;;;;5113255;28;19943;-65
2021/12/26 11:39:14;;;;;;;;;;;7.70;47.30;;;;;;5110126;28;19915;-65
2021/12/26 11:41:46;;;;;;;;;;;7.70;47.30;;;;;;5119200;27;20383;-65
2021/12/26 11:44:31;;;;;;;;;;;7.80;47.20;;;;;;5119466;27;19908;-64
2021/12/26 11:46:58;;;;;;;;;;;7.80;47.80;;;;;;5115132;28;19965;-64
2021/12/26 11:49:42;;;;;;;;;;;7.80;47.00;;;;;;5109818;28;19908;-64
2021/12/26 11:52:15;;;;;;;;;;;7.80;47.00;;;;;;5119023;27;19915;-64
2021/12/26 11:54:54;;;;;;;;;;;7.80;46.90;;;;;;5105406;28;19915;-64
2021/12/26 11:57:39;;;;;;;;;;;7.80;46.90;;;;;;5118458;28;20039;-64
2021/12/26 12:00:05;;;;;;;;;;;7.90;46.80;;;;;;5119694;27;20292;-65
2021/12/26 12:02:33;;;;;;;;;;;7.90;46.80;;;;;;5117715;28;19916;-64
2021/12/26 12:05:06;;;;;;;;;;;7.90;46.80;;;;;;5119509;28;19911;-65
2021/12/26 12:07:52;;;;;;;;;;;7.90;46.80;;;;;;5119418;27;19912;-65
2021/12/26 12:10:31;;;;;;;;;;;8.00;46.70;;;;;;5108242;28;19994;-64
2021/12/26 12:12:57;;;;;;;;;;;7.90;46.60;;;;;;5103164;27;20407;-64
2021/12/26 12:15:43;;;;;;;;;;;7.90;46.50;;;;;;5097727;28;19909;-67
2021/12/26 12:18:10;;;;;;;;;;;7.90;46.50;;;;;;5097109;27;19958;-67
2021/12/26 12:20:36;;;;;;;;;;;7.90;46.40;;;;;;5114277;27;19915;-67
2021/12/26 12:23:06;;;;;;;;;;;7.80;46.40;;;;;;5099412;28;19912;-67
2021/12/26 12:25:41;;;;;;;;;;;7.80;46.50;;;;;;5097659;28;19930;-68
2021/12/26 12:28:09;;;;;;;;;;;7.80;47.00;;;;;;5109566;28;19915;-66
2021/12/26 12:30:36;;;;;;;;;;;7.90;46.60;;;;;;5118342;27;20314;-65
2021/12/26 12:33:21;;;;;;;;;;;7.90;46.60;;;;;;5117781;28;20287;-66
2021/12/26 12:35:57;;;;;;;;;;;7.90;46.50;;;;;;5118430;27;20009;-66
2021/12/26 12:38:25;;;;;;;;;;;7.90;46.50;;;;;;5117081;28;19908;-66
2021/12/26 12:40:51;;;;;;;;;;;7.90;46.40;;;;;;5118435;27;19912;-67
2021/12/26 12:43:18;;;;;;;;;;;7.90;46.40;;;;;;5118388;27;19916;-67
2021/12/26 12:45:58;;;;;;;;;;;7.90;46.40;;;;;;5118318;27;19907;-67
2021/12/26 12:48:27;;;;;;;;;;;7.90;46.40;;;;;;5116730;28;19904;-67
2021/12/26 12:50:54;;;;;;;;;;;7.80;46.30;;;;;;5114666;27;19912;-67
2021/12/26 12:53:41;;;;;;;;;;;7.90;46.30;;;;;;5115250;27;19976;-67
2021/12/26 12:56:07;;;;;;;;;;;7.90;46.20;;;;;;5115284;27;20361;-67
2021/12/26 12:58:36;;;;;;;;;;;7.90;46.20;;;;;;5115111;28;19969;-67
2021/12/26 13:01:05;;;;;;;;;;;7.90;46.10;;;;;;5115927;27;19915;-67
2021/12/26 13:03:34;;;;;;;;;;;7.90;45.90;;;;;;5115800;28;19915;-67
2021/12/26 13:06:07;;;;;;;;;;;7.90;45.80;;;;;;5115607;28;20228;-68
2021/12/26 13:08:36;;;;;;;;;;;7.90;45.70;;;;;;5115701;28;19957;-68
2021/12/26 13:11:02;;;;;;;;;;;8.00;45.70;;;;;;5115670;28;19908;-67
2021/12/26 13:13:29;;;;;;;;;;;7.90;45.60;;;;;;5115461;28;19911;-67
2021/12/26 13:16:03;;;;;;;;;;;8.00;45.60;;;;;;5115262;28;19918;-67
2021/12/26 13:18:30;;;;;;;;;;;8.00;45.60;;;;;;5115390;28;19911;-66
2021/12/26 13:20:57;;;;;;;;;;;7.90;45.30;;;;;;5115358;28;19911;-67
2021/12/26 13:23:24;;;;;;;;;;;7.90;45.20;;;;;;5115287;28;20015;-67
2021/12/26 13:25:51;;;;;;;;;;;7.90;45.10;;;;;;5115209;28;19904;-67
2021/12/26 13:28:16;;;;;;;;;;;7.90;45.20;;;;;;5115196;28;19907;-68
2021/12/26 13:30:43;;;;;;;;;;;7.90;45.20;;;;;;5113894;28;19904;-66
2021/12/26 13:33:17;;;;;;;;;;;7.90;45.20;;;;;;5115039;28;19916;-66
2021/12/26 13:35:43;;;;;;;;;;;7.90;45.20;;;;;;5115154;28;19958;-67
2021/12/26 13:38:09;;;;;;;;;;;7.80;45.30;;;;;;5115175;28;19973;-67
2021/12/26 13:40:45;;;;;;;;;;;7.80;45.30;;;;;;5115112;28;20003;-67
2021/12/26 13:43:11;;;;;;;;;;;7.80;45.20;;;;;;5115079;28;19915;-67
2021/12/26 13:45:38;;;;;;;;;;;7.80;45.20;;;;;;5115017;28;19915;-67
2021/12/26 13:48:04;;;;;;;;;;;7.70;45.20;;;;;;5114909;28;20285;-66
2021/12/26 13:50:30;;;;;;;;;;;7.70;45.20;;;;;;5114876;28;19915;-67
2021/12/26 13:53:14;;;;;;;;;;;7.70;45.10;;;;;;5114719;28;20285;-67
2021/12/26 13:55:40;;;;;;;;;;;7.60;45.00;;;;;;5115087;28;19908;-67
2021/12/26 13:58:09;;;;;;;;;;;7.50;44.70;;;;;;5114671;28;19903;-67
2021/12/26 14:00:45;;;;;;;;;;;7.50;44.60;;;;;;5114608;28;19907;-67
2021/12/26 14:03:10;;;;;;;;;;;7.40;44.70;;;;;;5114265;28;20305;-67
2021/12/26 14:05:37;;;;;;;;;;;7.40;44.80;;;;;;5114590;28;19914;-67
2021/12/26 14:08:11;;;;;;;;;;;7.30;44.80;;;;;;5114404;28;19999;-67
2021/12/26 14:10:37;;;;;;;;;;;7.30;44.90;;;;;;5114235;28;19955;-67
2021/12/26 14:13:05;;;;;;;;;;;7.20;45.00;;;;;;5114169;28;19947;-67
2021/12/26 14:15:34;;;;;;;;;;;7.20;44.90;;;;;;5114121;28;19918;-67
2021/12/26 14:18:01;;;;;;;;;;;7.10;44.90;;;;;;5114215;28;19923;-66
2021/12/26 14:20:28;;;;;;;;;;;7.10;45.00;;;;;;5114270;28;19930;-67
2021/12/26 14:22:57;;;;;;;;;;;7.10;45.10;;;;;;5114112;27;19947;-66
2021/12/26 14:25:22;;;;;;;;;;;7.00;45.20;;;;;;5114083;28;19943;-66
2021/12/26 14:27:48;;;;;;;;;;;7.00;45.20;;;;;;5112795;28;19957;-67
2021/12/26 14:30:15;;;;;;;;;;;6.90;45.20;;;;;;5113924;27;19908;-67
2021/12/26 14:32:56;;;;;;;;;;;6.90;45.30;;;;;;5114264;28;20025;-66
2021/12/26 14:35:21;;;;;;;;;;;6.90;45.50;;;;;;5114089;28;20294;-66
2021/12/26 14:37:47;;;;;;;;;;;6.80;45.60;;;;;;5113725;28;19915;-66